Time;durP1;ratioP1;P1;durP2;ratioP2;P2;SDS_P1;SDS_P2;PMS_P1;PMS_P2;Temp;Humidity;BMP_temperature;BMP_pressure;BME280_temperature;BME280_humidity;BME280_pressure;Samples;Min_cycle;Max_cycle;Signal;HPM_P1;HPM_P2
2023/06/17 00:00:42;;;;;;;0.70;0.60;;;;;;;;;;5064231;28;20516;-81
2023/06/17 00:03:08;;;;;;;0.70;0.60;;;;;;;;;;5054399;28;20440;-81
2023/06/17 00:05:36;;;;;;;0.80;0.70;;;;;;;;;;5051724;28;20986;-81
2023/06/17 00:08:02;;;;;;;0.77;0.70;;;;;;;;;;5055101;28;20458;-81
2023/06/17 00:10:31;;;;;;;0.80;0.70;;;;;;;;;;5059821;28;20483;-81
2023/06/17 00:12:58;;;;;;;0.80;0.70;;;;;;;;;;5056677;28;20518;-81
2023/06/17 00:15:25;;;;;;;0.80;0.80;;;;;;;;;;5055821;28;20470;-82
2023/06/17 00:17:52;;;;;;;0.70;0.60;;;;;;;;;;5052806;28;20482;-82
2023/06/17 00:20:20;;;;;;;0.70;0.60;;;;;;;;;;5057872;28;20440;-82
2023/06/17 00:22:47;;;;;;;0.97;0.97;;;;;;;;;;5052950;28;20859;-79
2023/06/17 00:25:13;;;;;;;0.70;0.60;;;;;;;;;;5061142;28;20440;-80
2023/06/17 00:27:41;;;;;;;0.70;0.60;;;;;;;;;;5057611;28;20438;-81
2023/06/17 00:30:08;;;;;;;1.13;1.03;;;;;;;;;;5043055;28;20466;-80
2023/06/17 00:32:35;;;;;;;0.70;0.63;;;;;;;;;;5052667;28;20524;-82
2023/06/17 00:35:02;;;;;;;0.80;0.80;;;;;;;;;;5048779;28;20440;-78
2023/06/17 00:37:29;;;;;;;0.70;0.60;;;;;;;;;;5043190;28;20458;-82
2023/06/17 00:39:55;;;;;;;0.70;0.60;;;;;;;;;;5058595;28;20486;-79
2023/06/17 00:42:22;;;;;;;0.80;0.70;;;;;;;;;;5056569;28;20460;-81
2023/06/17 00:44:50;;;;;;;0.70;0.63;;;;;;;;;;5057897;28;20442;-80
2023/06/17 00:47:17;;;;;;;1.00;0.90;;;;;;;;;;5053909;28;20484;-81
2023/06/17 00:49:44;;;;;;;1.53;1.43;;;;;;;;;;5053714;28;20444;-79
2023/06/17 00:52:13;;;;;;;1.63;1.53;;;;;;;;;;5055971;28;20500;-80
2023/06/17 00:54:59;;;;;;;1.50;1.40;;;;;;;;;;5044536;28;20434;-81
2023/06/17 00:57:27;;;;;;;0.80;0.80;;;;;;;;;;5058824;28;20432;-79
2023/06/17 00:59:55;;;;;;;0.70;0.60;;;;;;;;;;5037495;28;20769;-81
2023/06/17 01:02:25;;;;;;;0.80;0.70;;;;;;;;;;5040422;28;20475;-80
2023/06/17 01:04:58;;;;;;;0.70;0.60;;;;;;;;;;5037673;28;20450;-79
2023/06/17 01:07:30;;;;;;;0.70;0.60;;;;;;;;;;5051942;28;20458;-80
2023/06/17 01:10:01;;;;;;;0.70;0.70;;;;;;;;;;5040451;28;20534;-79
2023/06/17 01:12:29;;;;;;;0.90;0.80;;;;;;;;;;5058479;28;20431;-80
2023/06/17 01:14:57;;;;;;;0.70;0.60;;;;;;;;;;5055136;28;20443;-81
2023/06/17 01:17:25;;;;;;;0.70;0.70;;;;;;;;;;5054865;28;20446;-82
2023/06/17 01:19:53;;;;;;;0.70;0.63;;;;;;;;;;5055801;28;20452;-79
2023/06/17 01:22:20;;;;;;;0.70;0.60;;;;;;;;;;5056997;28;20480;-81
2023/06/17 01:24:49;;;;;;;0.90;0.90;;;;;;;;;;5041861;28;20442;-81
2023/06/17 01:27:16;;;;;;;0.80;0.70;;;;;;;;;;5054982;28;20435;-81
2023/06/17 01:29:48;;;;;;;0.70;0.60;;;;;;;;;;5056886;28;20451;-82
2023/06/17 01:32:16;;;;;;;0.80;0.70;;;;;;;;;;5038460;28;20438;-82
2023/06/17 01:34:46;;;;;;;0.70;0.70;;;;;;;;;;5055190;28;20527;-80
2023/06/17 01:37:14;;;;;;;0.70;0.70;;;;;;;;;;5056717;28;20943;-81
2023/06/17 01:39:43;;;;;;;0.70;0.70;;;;;;;;;;5059727;28;20567;-80
2023/06/17 01:42:13;;;;;;;1.00;0.90;;;;;;;;;;5052277;28;20473;-82
2023/06/17 01:44:41;;;;;;;0.93;0.83;;;;;;;;;;5057761;28;20437;-80
2023/06/17 01:47:10;;;;;;;0.70;0.70;;;;;;;;;;5041037;28;20476;-82
2023/06/17 01:49:37;;;;;;;0.90;0.80;;;;;;;;;;5038942;28;20969;-81
2023/06/17 01:52:04;;;;;;;0.80;0.70;;;;;;;;;;5055843;28;20539;-78
2023/06/17 01:54:31;;;;;;;0.70;0.70;;;;;;;;;;5035809;28;20986;-81
2023/06/17 01:56:58;;;;;;;0.70;0.60;;;;;;;;;;5051295;28;20445;-81
2023/06/17 01:59:27;;;;;;;1.23;1.17;;;;;;;;;;5056245;28;20434;-80
2023/06/17 02:01:53;;;;;;;0.70;0.60;;;;;;;;;;5057489;28;20468;-82
2023/06/17 02:04:20;;;;;;;1.33;1.23;;;;;;;;;;5034831;28;20452;-82
2023/06/17 02:06:46;;;;;;;0.80;0.70;;;;;;;;;;5054828;28;20500;-80
2023/06/17 02:09:13;;;;;;;0.70;0.70;;;;;;;;;;5050651;28;20532;-79
2023/06/17 02:11:40;;;;;;;0.70;0.70;;;;;;;;;;5038533;28;20441;-79
2023/06/17 02:14:07;;;;;;;0.70;0.60;;;;;;;;;;5047747;28;20493;-79
2023/06/17 02:16:42;;;;;;;0.70;0.70;;;;;;;;;;5057682;28;20432;-79
2023/06/17 02:19:09;;;;;;;0.80;0.70;;;;;;;;;;5048878;28;20489;-81
2023/06/17 02:21:35;;;;;;;0.80;0.70;;;;;;;;;;5038370;28;20460;-80
2023/06/17 02:24:02;;;;;;;0.70;0.60;;;;;;;;;;5050039;28;20440;-80
2023/06/17 02:26:29;;;;;;;1.07;0.97;;;;;;;;;;5052479;28;20970;-82
2023/06/17 02:28:56;;;;;;;0.70;0.60;;;;;;;;;;5059459;28;20501;-80
2023/06/17 02:31:22;;;;;;;1.40;1.30;;;;;;;;;;5050083;28;20440;-80
2023/06/17 02:33:50;;;;;;;0.70;0.70;;;;;;;;;;5048568;28;20422;-80
2023/06/17 02:36:19;;;;;;;2.30;2.10;;;;;;;;;;5029870;28;20461;-80
2023/06/17 02:38:46;;;;;;;0.70;0.60;;;;;;;;;;5030028;28;20457;-80
2023/06/17 02:41:13;;;;;;;0.80;0.70;;;;;;;;;;5055490;28;20475;-81
2023/06/17 02:43:40;;;;;;;0.70;0.60;;;;;;;;;;5051796;28;20601;-81
2023/06/17 02:46:08;;;;;;;0.70;0.60;;;;;;;;;;5053119;28;20435;-82
2023/06/17 02:48:35;;;;;;;0.83;0.83;;;;;;;;;;5058369;28;20866;-78
2023/06/17 02:51:04;;;;;;;0.90;0.90;;;;;;;;;;5050372;28;20447;-80
2023/06/17 02:53:30;;;;;;;0.70;0.60;;;;;;;;;;5053105;28;20455;-80
2023/06/17 02:55:59;;;;;;;0.70;0.60;;;;;;;;;;5055928;28;20554;-80
2023/06/17 02:58:26;;;;;;;0.70;0.60;;;;;;;;;;5042775;28;20503;-80
2023/06/17 03:00:55;;;;;;;0.70;0.60;;;;;;;;;;5043141;28;20457;-78
2023/06/17 03:03:33;;;;;;;0.70;0.60;;;;;;;;;;5051606;28;20934;-81
2023/06/17 03:06:05;;;;;;;0.70;0.60;;;;;;;;;;5052677;28;20438;-81
2023/06/17 03:08:35;;;;;;;0.70;0.60;;;;;;;;;;5052687;28;20471;-82
2023/06/17 03:11:02;;;;;;;0.70;0.60;;;;;;;;;;5038921;28;20443;-81
2023/06/17 03:13:30;;;;;;;0.80;0.70;;;;;;;;;;5055683;28;20423;-78
2023/06/17 03:15:58;;;;;;;0.70;0.60;;;;;;;;;;5052327;28;20462;-81
2023/06/17 03:18:27;;;;;;;0.70;0.70;;;;;;;;;;5045360;28;20453;-79
2023/06/17 03:20:54;;;;;;;0.80;0.70;;;;;;;;;;5044156;28;20460;-80
2023/06/17 03:23:22;;;;;;;0.90;0.90;;;;;;;;;;5036829;28;20471;-80
2023/06/17 03:25:51;;;;;;;0.70;0.70;;;;;;;;;;5062362;28;20884;-80
2023/06/17 03:28:18;;;;;;;0.80;0.70;;;;;;;;;;5037780;28;20456;-80
2023/06/17 03:30:45;;;;;;;0.73;0.70;;;;;;;;;;5055839;28;20442;-80
2023/06/17 03:33:14;;;;;;;0.70;0.60;;;;;;;;;;5039653;28;20504;-81
2023/06/17 03:35:41;;;;;;;0.80;0.70;;;;;;;;;;5042549;28;20549;-80
2023/06/17 03:38:08;;;;;;;0.70;0.60;;;;;;;;;;5059848;28;20630;-79
2023/06/17 03:40:34;;;;;;;2.70;1.03;;;;;;;;;;5055673;28;20429;-80
2023/06/17 03:43:02;;;;;;;1.43;1.33;;;;;;;;;;5041248;28;20536;-80
2023/06/17 03:45:30;;;;;;;0.70;0.60;;;;;;;;;;5041340;28;20440;-81
2023/06/17 03:47:59;;;;;;;0.70;0.70;;;;;;;;;;5044196;28;20790;-81
2023/06/17 03:50:26;;;;;;;0.90;0.90;;;;;;;;;;5043041;28;20440;-82
2023/06/17 03:52:54;;;;;;;0.70;0.60;;;;;;;;;;5042275;28;20469;-80
2023/06/17 03:55:22;;;;;;;0.70;0.60;;;;;;;;;;5056930;28;20439;-81
2023/06/17 03:57:49;;;;;;;0.70;0.60;;;;;;;;;;5055093;28;20448;-81
2023/06/17 04:00:17;;;;;;;0.80;0.80;;;;;;;;;;5053763;28;20447;-81
2023/06/17 04:02:45;;;;;;;0.70;0.60;;;;;;;;;;5039410;28;20511;-80
2023/06/17 04:05:23;;;;;;;0.70;0.60;;;;;;;;;;5051042;28;20437;-81
2023/06/17 04:07:50;;;;;;;0.80;0.80;;;;;;;;;;5039915;28;20547;-79
2023/06/17 04:10:16;;;;;;;0.80;0.80;;;;;;;;;;5054937;28;20468;-82
2023/06/17 04:12:43;;;;;;;0.70;0.70;;;;;;;;;;5055548;28;20486;-81
2023/06/17 04:15:10;;;;;;;0.70;0.60;;;;;;;;;;5056289;28;20443;-80
2023/06/17 04:17:38;;;;;;;1.10;0.90;;;;;;;;;;5058013;28;20818;-79
2023/06/17 04:20:10;;;;;;;0.70;0.60;;;;;;;;;;5059568;28;20488;-80
2023/06/17 04:22:39;;;;;;;0.80;0.70;;;;;;;;;;5058119;28;20570;-78
2023/06/17 04:25:07;;;;;;;0.70;0.70;;;;;;;;;;5053932;28;20443;-77
2023/06/17 04:27:36;;;;;;;0.70;0.60;;;;;;;;;;5055704;28;20440;-80
2023/06/17 04:30:04;;;;;;;0.80;0.70;;;;;;;;;;5060056;28;20452;-79
2023/06/17 04:32:34;;;;;;;1.13;1.03;;;;;;;;;;5042976;28;20975;-80
2023/06/17 04:35:05;;;;;;;1.00;1.00;;;;;;;;;;5041591;28;20461;-80
2023/06/17 04:37:37;;;;;;;1.23;1.13;;;;;;;;;;5038431;28;20464;-80
2023/06/17 04:40:06;;;;;;;0.70;0.60;;;;;;;;;;5041128;28;20529;-80
2023/06/17 04:42:33;;;;;;;0.70;0.70;;;;;;;;;;5042294;28;20481;-80
2023/06/17 04:45:02;;;;;;;1.00;0.90;;;;;;;;;;5041371;28;20452;-82
2023/06/17 04:47:30;;;;;;;0.90;0.90;;;;;;;;;;5058437;28;20436;-81
2023/06/17 04:49:56;;;;;;;0.87;0.87;;;;;;;;;;5038141;28;20448;-81
2023/06/17 04:52:25;;;;;;;0.80;0.77;;;;;;;;;;5056217;28;20479;-79
2023/06/17 04:54:53;;;;;;;0.70;0.63;;;;;;;;;;5036816;28;20996;-81
2023/06/17 04:57:19;;;;;;;0.70;0.60;;;;;;;;;;5045903;28;20474;-80
2023/06/17 04:59:49;;;;;;;0.80;0.70;;;;;;;;;;5042898;28;20948;-81
2023/06/17 05:02:16;;;;;;;2.60;1.00;;;;;;;;;;5043157;28;20466;-78
2023/06/17 05:04:43;;;;;;;1.37;1.27;;;;;;;;;;5053718;28;20533;-83
2023/06/17 05:07:10;;;;;;;0.70;0.60;;;;;;;;;;5036224;28;20542;-79
2023/06/17 05:09:40;;;;;;;0.70;0.70;;;;;;;;;;5037271;28;20448;-81
2023/06/17 05:12:08;;;;;;;6.63;1.03;;;;;;;;;;5040661;28;20447;-80
2023/06/17 05:14:35;;;;;;;0.80;0.80;;;;;;;;;;5036634;28;20577;-80
2023/06/17 05:17:02;;;;;;;5.77;1.57;;;;;;;;;;5057436;28;20461;-80
2023/06/17 05:19:29;;;;;;;1.23;0.80;;;;;;;;;;5040069;28;20449;-80
2023/06/17 05:21:55;;;;;;;0.90;0.90;;;;;;;;;;5042721;28;20497;-81
2023/06/17 05:24:25;;;;;;;1.00;0.90;;;;;;;;;;5040535;28;20632;-80
2023/06/17 05:26:53;;;;;;;0.70;0.60;;;;;;;;;;5044281;28;20444;-80
2023/06/17 05:29:20;;;;;;;0.80;0.70;;;;;;;;;;5056210;28;20441;-78
2023/06/17 05:31:47;;;;;;;0.70;0.70;;;;;;;;;;5045852;28;20969;-81
2023/06/17 05:34:14;;;;;;;0.97;0.87;;;;;;;;;;5056445;28;20453;-81
2023/06/17 05:36:41;;;;;;;1.13;1.03;;;;;;;;;;5049088;28;20463;-80
2023/06/17 05:39:10;;;;;;;3.07;2.90;;;;;;;;;;5054744;28;20446;-80
2023/06/17 05:41:36;;;;;;;0.80;0.80;;;;;;;;;;5038860;28;20495;-81
2023/06/17 05:44:05;;;;;;;0.70;0.70;;;;;;;;;;5039435;28;20476;-81
2023/06/17 05:46:31;;;;;;;1.93;1.83;;;;;;;;;;5057447;28;20485;-81
2023/06/17 05:48:59;;;;;;;0.70;0.60;;;;;;;;;;5048618;28;20452;-80
2023/06/17 05:51:27;;;;;;;0.77;0.70;;;;;;;;;;5052738;28;20463;-80
2023/06/17 05:53:57;;;;;;;0.80;0.80;;;;;;;;;;5036822;28;20479;-82
2023/06/17 05:56:25;;;;;;;0.70;0.67;;;;;;;;;;5055459;28;21241;-80
2023/06/17 05:58:51;;;;;;;0.80;0.80;;;;;;;;;;5036973;28;20462;-79
2023/06/17 06:01:34;;;;;;;1.10;1.00;;;;;;;;;;5059919;28;20454;-81
2023/06/17 06:04:01;;;;;;;0.90;0.80;;;;;;;;;;5037905;28;21025;-80
2023/06/17 06:06:28;;;;;;;0.80;0.70;;;;;;;;;;5041845;28;20461;-80
2023/06/17 06:08:58;;;;;;;0.80;0.70;;;;;;;;;;5059590;28;20448;-81
2023/06/17 06:11:25;;;;;;;0.90;0.90;;;;;;;;;;5041839;28;20445;-79
2023/06/17 06:13:53;;;;;;;0.80;0.70;;;;;;;;;;5054010;28;20528;-80
2023/06/17 06:16:21;;;;;;;0.80;0.80;;;;;;;;;;5057804;28;20442;-80
2023/06/17 06:18:49;;;;;;;0.80;0.70;;;;;;;;;;5052729;28;20838;-80
2023/06/17 06:21:17;;;;;;;1.23;1.00;;;;;;;;;;5039290;28;20527;-80
2023/06/17 06:23:43;;;;;;;0.80;0.70;;;;;;;;;;5039330;28;20557;-79
2023/06/17 06:26:10;;;;;;;2.20;1.43;;;;;;;;;;5037945;28;20437;-80
2023/06/17 06:28:37;;;;;;;0.80;0.80;;;;;;;;;;5046020;28;20964;-80
2023/06/17 06:31:03;;;;;;;1.03;0.93;;;;;;;;;;5039702;28;20455;-81
2023/06/17 06:33:35;;;;;;;1.00;0.93;;;;;;;;;;5034732;28;20983;-80
2023/06/17 06:36:05;;;;;;;0.80;0.80;;;;;;;;;;5053053;28;20446;-80
2023/06/17 06:38:33;;;;;;;1.03;0.90;;;;;;;;;;5030287;28;20861;-82
2023/06/17 06:41:00;;;;;;;0.90;0.90;;;;;;;;;;5056745;28;20444;-80
2023/06/17 06:43:28;;;;;;;1.83;1.73;;;;;;;;;;5035170;28;20505;-80
2023/06/17 06:45:59;;;;;;;0.80;0.70;;;;;;;;;;5053954;28;20940;-80
2023/06/17 06:48:26;;;;;;;1.13;1.03;;;;;;;;;;5033586;28;20537;-81
2023/06/17 06:50:55;;;;;;;1.20;1.10;;;;;;;;;;5056275;28;20503;-80
2023/06/17 06:53:24;;;;;;;0.97;0.90;;;;;;;;;;5042903;28;21301;-80
2023/06/17 06:55:53;;;;;;;0.80;0.73;;;;;;;;;;5065077;28;20437;-80
2023/06/17 06:58:20;;;;;;;1.47;1.37;;;;;;;;;;5033689;28;20453;-79
2023/06/17 07:00:47;;;;;;;0.90;0.80;;;;;;;;;;5058199;28;20990;-81
2023/06/17 07:03:14;;;;;;;1.43;1.33;;;;;;;;;;5052293;28;20476;-81
2023/06/17 07:05:40;;;;;;;0.80;0.80;;;;;;;;;;5045289;28;20445;-80
2023/06/17 07:08:09;;;;;;;1.17;1.07;;;;;;;;;;5040310;28;20478;-80
2023/06/17 07:10:39;;;;;;;0.90;0.90;;;;;;;;;;5040336;28;20506;-80
2023/06/17 07:13:08;;;;;;;1.20;1.10;;;;;;;;;;5035633;28;20477;-80
2023/06/17 07:15:39;;;;;;;1.40;1.30;;;;;;;;;;5040667;28;21135;-80
2023/06/17 07:18:07;;;;;;;1.17;1.07;;;;;;;;;;5055431;28;20459;-80
2023/06/17 07:20:33;;;;;;;0.80;0.77;;;;;;;;;;5049575;28;20530;-81
2023/06/17 07:23:00;;;;;;;0.80;0.73;;;;;;;;;;5037253;28;20523;-78
2023/06/17 07:25:27;;;;;;;1.27;1.17;;;;;;;;;;5042514;28;21213;-80
2023/06/17 07:28:02;;;;;;;0.80;0.80;;;;;;;;;;5046895;28;20440;-80
2023/06/17 07:30:29;;;;;;;0.90;0.87;;;;;;;;;;5038445;28;20519;-80
2023/06/17 07:32:56;;;;;;;0.80;0.80;;;;;;;;;;5037457;28;20458;-80
2023/06/17 07:35:25;;;;;;;0.97;0.90;;;;;;;;;;5051029;28;20443;-79
2023/06/17 07:37:52;;;;;;;2.70;2.50;;;;;;;;;;5057025;28;20481;-81
2023/06/17 07:40:19;;;;;;;1.40;1.00;;;;;;;;;;5055060;28;21222;-80
2023/06/17 07:42:46;;;;;;;1.10;1.00;;;;;;;;;;5033875;28;20427;-80
2023/06/17 07:45:15;;;;;;;0.80;0.80;;;;;;;;;;5053038;28;20463;-80
2023/06/17 07:47:43;;;;;;;0.80;0.80;;;;;;;;;;5050512;28;20708;-80
2023/06/17 07:50:10;;;;;;;1.30;1.07;;;;;;;;;;5053645;28;20838;-82
2023/06/17 07:52:37;;;;;;;1.73;1.63;;;;;;;;;;5054754;28;20487;-81
2023/06/17 07:55:04;;;;;;;1.20;1.10;;;;;;;;;;5054748;28;20463;-80
2023/06/17 07:57:33;;;;;;;1.20;1.10;;;;;;;;;;5039944;28;20810;-82
2023/06/17 08:00:00;;;;;;;1.10;1.00;;;;;;;;;;5053903;28;20457;-81
2023/06/17 08:02:28;;;;;;;1.57;1.47;;;;;;;;;;5053629;28;20437;-83
2023/06/17 08:04:55;;;;;;;0.90;0.80;;;;;;;;;;5054707;28;20847;-80
2023/06/17 08:07:21;;;;;;;0.80;0.70;;;;;;;;;;5054094;28;20497;-81
2023/06/17 08:09:49;;;;;;;3.37;1.27;;;;;;;;;;5055708;28;20423;-80
2023/06/17 08:12:16;;;;;;;0.80;0.70;;;;;;;;;;5054059;28;20529;-80
2023/06/17 08:14:42;;;;;;;1.50;1.20;;;;;;;;;;5047259;28;20444;-82
2023/06/17 08:17:11;;;;;;;1.00;0.90;;;;;;;;;;5044443;28;20440;-81
2023/06/17 08:19:40;;;;;;;0.90;0.80;;;;;;;;;;5047460;28;20451;-81
2023/06/17 08:22:07;;;;;;;2.10;2.00;;;;;;;;;;5056067;28;20862;-76
2023/06/17 08:24:34;;;;;;;2.80;1.00;;;;;;;;;;5054143;28;20430;-77
2023/06/17 08:27:01;;;;;;;1.10;1.00;;;;;;;;;;5038161;28;20783;-80
2023/06/17 08:29:27;;;;;;;1.00;0.90;;;;;;;;;;5050772;28;20528;-79
2023/06/17 08:31:54;;;;;;;0.90;0.90;;;;;;;;;;5058400;28;20540;-81
2023/06/17 08:34:24;;;;;;;1.77;0.90;;;;;;;;;;5054616;28;20435;-80
2023/06/17 08:36:55;;;;;;;0.80;0.80;;;;;;;;;;5037774;28;20468;-80
2023/06/17 08:39:22;;;;;;;2.43;1.20;;;;;;;;;;5038535;28;20922;-82
2023/06/17 08:41:48;;;;;;;1.30;1.20;;;;;;;;;;5051658;28;20430;-81
2023/06/17 08:44:18;;;;;;;1.50;1.40;;;;;;;;;;5030835;28;20442;-79
2023/06/17 08:46:46;;;;;;;0.80;0.80;;;;;;;;;;5033702;28;20421;-81
2023/06/17 08:49:13;;;;;;;1.07;1.00;;;;;;;;;;5053537;28;20459;-79
2023/06/17 08:51:40;;;;;;;0.80;0.80;;;;;;;;;;5034304;28;20931;-80
2023/06/17 08:54:09;;;;;;;0.80;0.70;;;;;;;;;;5050246;28;20438;-81
2023/06/17 08:56:36;;;;;;;0.70;0.60;;;;;;;;;;5033463;28;20422;-81
2023/06/17 08:59:02;;;;;;;1.17;1.07;;;;;;;;;;5051697;28;20561;-77
2023/06/17 09:01:29;;;;;;;0.80;0.70;;;;;;;;;;5048783;28;20436;-81
2023/06/17 09:03:56;;;;;;;0.80;0.80;;;;;;;;;;5041812;28;20456;-80
2023/06/17 09:06:24;;;;;;;0.80;0.80;;;;;;;;;;5055313;28;20429;-80
2023/06/17 09:08:51;;;;;;;1.30;1.20;;;;;;;;;;5050746;28;20482;-79
2023/06/17 09:11:20;;;;;;;0.90;0.80;;;;;;;;;;5059802;28;20989;-78
2023/06/17 09:13:50;;;;;;;0.80;0.70;;;;;;;;;;5052818;28;20432;-80
2023/06/17 09:16:17;;;;;;;1.27;1.17;;;;;;;;;;5046988;28;20442;-79
2023/06/17 09:18:44;;;;;;;1.93;1.83;;;;;;;;;;5051548;28;20427;-80
2023/06/17 09:21:14;;;;;;;1.10;1.00;;;;;;;;;;5051535;28;20864;-78
2023/06/17 09:23:41;;;;;;;0.80;0.70;;;;;;;;;;5054579;28;21004;-79
2023/06/17 09:26:07;;;;;;;1.00;0.90;;;;;;;;;;5048132;28;20524;-83
2023/06/17 09:28:35;;;;;;;3.60;3.30;;;;;;;;;;5048591;28;20472;-82
2023/06/17 09:31:03;;;;;;;0.80;0.70;;;;;;;;;;5053309;28;20432;-77
2023/06/17 09:33:29;;;;;;;1.20;1.10;;;;;;;;;;5052359;28;20534;-80
2023/06/17 09:36:00;;;;;;;1.47;0.83;;;;;;;;;;5054277;28;20465;-78
2023/06/17 09:38:27;;;;;;;0.80;0.70;;;;;;;;;;5051664;28;20464;-77
2023/06/17 09:40:54;;;;;;;0.80;0.80;;;;;;;;;;5054203;28;20492;-82
2023/06/17 09:43:25;;;;;;;7.63;1.00;;;;;;;;;;5050083;28;20439;-81
2023/06/17 09:45:56;;;;;;;1.00;0.83;;;;;;;;;;5052534;28;20554;-83
2023/06/17 09:48:29;;;;;;;1.00;0.90;;;;;;;;;;5054108;28;20488;-81
2023/06/17 09:50:56;;;;;;;0.80;0.70;;;;;;;;;;5052128;28;20454;-81
2023/06/17 09:53:26;;;;;;;1.10;0.90;;;;;;;;;;5029892;28;20520;-81
2023/06/17 09:55:55;;;;;;;0.90;0.90;;;;;;;;;;5044950;28;20444;-79
2023/06/17 09:58:22;;;;;;;0.80;0.70;;;;;;;;;;5044736;28;20466;-79
2023/06/17 10:00:51;;;;;;;0.80;0.77;;;;;;;;;;5049844;28;20480;-79
2023/06/17 10:03:20;;;;;;;1.17;1.10;;;;;;;;;;5053432;28;20452;-81
2023/06/17 10:05:52;;;;;;;5.53;1.20;;;;;;;;;;5050092;28;20483;-79
2023/06/17 10:08:19;;;;;;;0.90;0.70;;;;;;;;;;5054520;28;20543;-81
2023/06/17 10:10:46;;;;;;;0.93;0.83;;;;;;;;;;5051779;28;20526;-82
2023/06/17 10:13:14;;;;;;;0.80;0.80;;;;;;;;;;5046507;28;20436;-81
2023/06/17 10:15:41;;;;;;;0.80;0.77;;;;;;;;;;5048338;28;20785;-83
2023/06/17 10:18:08;;;;;;;0.80;0.80;;;;;;;;;;5051487;28;20452;-82
2023/06/17 10:20:36;;;;;;;0.90;0.70;;;;;;;;;;5052580;28;21019;-83
2023/06/17 10:23:04;;;;;;;1.00;0.90;;;;;;;;;;5049484;28;20456;-82
2023/06/17 10:25:32;;;;;;;0.80;0.70;;;;;;;;;;5048753;28;20455;-82
2023/06/17 10:28:00;;;;;;;0.93;0.83;;;;;;;;;;5054140;28;20934;-81
2023/06/17 10:30:28;;;;;;;0.97;0.83;;;;;;;;;;5058157;28;20501;-81
2023/06/17 10:32:56;;;;;;;0.80;0.77;;;;;;;;;;5055434;28;20435;-83
2023/06/17 10:35:23;;;;;;;0.87;0.70;;;;;;;;;;5067063;28;20916;-84
2023/06/17 10:37:51;;;;;;;0.80;0.80;;;;;;;;;;5055245;28;20495;-82
2023/06/17 10:40:18;;;;;;;1.57;1.47;;;;;;;;;;5047261;28;20436;-84
2023/06/17 10:42:52;;;;;;;0.80;0.80;;;;;;;;;;5046814;28;20436;-80
2023/06/17 10:45:19;;;;;;;1.37;1.27;;;;;;;;;;5053399;28;20982;-80
2023/06/17 10:47:46;;;;;;;0.70;0.50;;;;;;;;;;5049238;28;20438;-80
2023/06/17 10:50:12;;;;;;;0.77;0.63;;;;;;;;;;5052226;28;20451;-80
2023/06/17 10:52:39;;;;;;;0.80;0.60;;;;;;;;;;5055661;28;20634;-79
2023/06/17 10:55:09;;;;;;;1.20;1.10;;;;;;;;;;5050443;28;20470;-81
2023/06/17 10:57:36;;;;;;;0.70;0.60;;;;;;;;;;5049648;28;20467;-80
2023/06/17 11:00:06;;;;;;;0.80;0.60;;;;;;;;;;5050642;28;20956;-80
2023/06/17 11:02:34;;;;;;;0.77;0.60;;;;;;;;;;5044836;28;20490;-80
2023/06/17 11:05:01;;;;;;;0.80;0.60;;;;;;;;;;5047818;28;20467;-79
2023/06/17 11:07:28;;;;;;;1.47;1.17;;;;;;;;;;5049522;28;20458;-80
2023/06/17 11:09:57;;;;;;;1.43;1.33;;;;;;;;;;5048318;28;20569;-80
2023/06/17 11:12:25;;;;;;;0.80;0.80;;;;;;;;;;5053107;28;20435;-80
2023/06/17 11:14:52;;;;;;;0.80;0.80;;;;;;;;;;5046827;28;20432;-80
2023/06/17 11:17:19;;;;;;;0.80;0.70;;;;;;;;;;5049941;28;20444;-79
2023/06/17 11:19:46;;;;;;;1.67;0.77;;;;;;;;;;5050941;28;20440;-80
2023/06/17 11:22:13;;;;;;;0.93;0.83;;;;;;;;;;5036112;28;20546;-81
2023/06/17 11:24:40;;;;;;;0.80;0.60;;;;;;;;;;5046374;28;20992;-79
2023/06/17 11:27:10;;;;;;;0.97;0.90;;;;;;;;;;5046594;28;20440;-79
2023/06/17 11:29:40;;;;;;;1.10;1.00;;;;;;;;;;5031791;28;20470;-79
2023/06/17 11:32:08;;;;;;;0.80;0.70;;;;;;;;;;5052206;28;21348;-82
2023/06/17 11:34:34;;;;;;;0.80;0.60;;;;;;;;;;5044812;28;20447;-80
2023/06/17 11:37:02;;;;;;;0.80;0.60;;;;;;;;;;5055839;28;20463;-79
2023/06/17 11:39:30;;;;;;;1.00;0.80;;;;;;;;;;5058012;28;20428;-80
2023/06/17 11:42:01;;;;;;;0.87;0.70;;;;;;;;;;5056173;28;20432;-80
2023/06/17 11:44:28;;;;;;;0.90;0.70;;;;;;;;;;5058323;28;20434;-80
2023/06/17 11:47:01;;;;;;;0.80;0.60;;;;;;;;;;5056074;28;20458;-79
2023/06/17 11:49:30;;;;;;;1.47;1.20;;;;;;;;;;5053792;28;20439;-79
2023/06/17 11:51:59;;;;;;;0.90;0.60;;;;;;;;;;5057796;28;20493;-79
2023/06/17 11:54:26;;;;;;;1.00;0.60;;;;;;;;;;5036868;28;21212;-78
2023/06/17 11:56:54;;;;;;;0.80;0.60;;;;;;;;;;5053059;28;20432;-78
2023/06/17 11:59:21;;;;;;;1.13;1.03;;;;;;;;;;5053944;28;20862;-80
2023/06/17 12:01:48;;;;;;;0.90;0.60;;;;;;;;;;5053419;28;20436;-79
2023/06/17 12:04:16;;;;;;;1.43;0.90;;;;;;;;;;5057608;28;20439;-77
2023/06/17 12:06:43;;;;;;;0.80;0.60;;;;;;;;;;5044214;28;20479;-80
2023/06/17 12:09:11;;;;;;;0.80;0.60;;;;;;;;;;5053891;28;20452;-78
2023/06/17 12:11:42;;;;;;;1.10;0.77;;;;;;;;;;5052060;28;20454;-78
2023/06/17 12:14:10;;;;;;;1.00;0.90;;;;;;;;;;5056362;28;20537;-77
2023/06/17 12:16:38;;;;;;;1.07;0.97;;;;;;;;;;5047490;28;20463;-75
2023/06/17 12:19:06;;;;;;;1.53;0.97;;;;;;;;;;5055137;28;20681;-76
2023/06/17 12:21:35;;;;;;;0.80;0.50;;;;;;;;;;5055083;28;20440;-77
2023/06/17 12:24:02;;;;;;;2.80;0.70;;;;;;;;;;5053008;28;20535;-76
2023/06/17 12:26:31;;;;;;;0.90;0.70;;;;;;;;;;5052527;28;20559;-77
2023/06/17 12:28:58;;;;;;;0.90;0.60;;;;;;;;;;5041207;28;20490;-76
2023/06/17 12:31:34;;;;;;;0.90;0.60;;;;;;;;;;5042441;28;20447;-77
2023/06/17 12:34:01;;;;;;;1.13;0.60;;;;;;;;;;5040294;28;20982;-76
2023/06/17 12:36:30;;;;;;;0.90;0.60;;;;;;;;;;5049696;28;20432;-77
2023/06/17 12:39:00;;;;;;;1.00;0.80;;;;;;;;;;5050435;28;20608;-79
2023/06/17 12:41:27;;;;;;;1.00;0.70;;;;;;;;;;5057372;28;20493;-75
2023/06/17 12:43:54;;;;;;;1.10;0.70;;;;;;;;;;5055953;28;20447;-79
2023/06/17 12:46:23;;;;;;;1.07;0.70;;;;;;;;;;5054800;28;20544;-78
2023/06/17 12:48:50;;;;;;;1.00;0.60;;;;;;;;;;5053245;28;20435;-78
2023/06/17 12:51:17;;;;;;;1.10;1.00;;;;;;;;;;5032744;28;20538;-77
2023/06/17 12:53:44;;;;;;;0.90;0.60;;;;;;;;;;5042599;28;20449;-75
2023/06/17 12:56:12;;;;;;;1.97;0.90;;;;;;;;;;5046635;28;20431;-78
2023/06/17 12:58:39;;;;;;;1.00;0.60;;;;;;;;;;5056438;28;20443;-79
2023/06/17 13:01:06;;;;;;;1.00;0.60;;;;;;;;;;5051845;28;20530;-79
2023/06/17 13:03:33;;;;;;;1.00;0.80;;;;;;;;;;5051024;28;20431;-77
2023/06/17 13:06:00;;;;;;;0.90;0.67;;;;;;;;;;5052316;28;20880;-79
2023/06/17 13:08:27;;;;;;;0.90;0.70;;;;;;;;;;5050233;28;20581;-78
2023/06/17 13:10:53;;;;;;;0.90;0.60;;;;;;;;;;5053634;28;20517;-78
2023/06/17 13:13:22;;;;;;;0.90;0.50;;;;;;;;;;5041254;28;20451;-78
2023/06/17 13:15:50;;;;;;;0.90;0.60;;;;;;;;;;5051222;28;20435;-77
2023/06/17 13:18:18;;;;;;;0.90;0.60;;;;;;;;;;5033955;28;20439;-76
2023/06/17 13:20:44;;;;;;;1.00;0.90;;;;;;;;;;5052094;28;21013;-78
2023/06/17 13:23:11;;;;;;;0.90;0.57;;;;;;;;;;5045190;28;20466;-78
2023/06/17 13:25:37;;;;;;;1.00;0.70;;;;;;;;;;5049161;28;20470;-76
2023/06/17 13:28:05;;;;;;;1.70;0.90;;;;;;;;;;5050268;28;20446;-77
2023/06/17 13:30:34;;;;;;;1.23;1.03;;;;;;;;;;5049220;28;20471;-76
2023/06/17 13:33:01;;;;;;;1.47;0.77;;;;;;;;;;5056649;28;20430;-77
2023/06/17 13:35:28;;;;;;;1.00;0.60;;;;;;;;;;5051164;28;20451;-78
2023/06/17 13:37:57;;;;;;;0.90;0.60;;;;;;;;;;5049990;28;20479;-78
2023/06/17 13:40:24;;;;;;;1.00;0.70;;;;;;;;;;5051537;28;20451;-78
2023/06/17 13:42:52;;;;;;;1.63;0.80;;;;;;;;;;5054267;28;20463;-76
2023/06/17 13:45:18;;;;;;;0.90;0.63;;;;;;;;;;5044504;28;20462;-78
2023/06/17 13:47:47;;;;;;;1.33;1.23;;;;;;;;;;5030113;28;20450;-78
2023/06/17 13:50:13;;;;;;;0.90;0.50;;;;;;;;;;5051030;28;20440;-76
2023/06/17 13:52:40;;;;;;;0.90;0.60;;;;;;;;;;5039620;28;20521;-74
2023/06/17 13:55:07;;;;;;;0.90;0.60;;;;;;;;;;5046438;28;20937;-76
2023/06/17 13:57:33;;;;;;;1.67;0.80;;;;;;;;;;5046100;28;20441;-75
2023/06/17 14:00:00;;;;;;;0.90;0.60;;;;;;;;;;5051098;28;20506;-76
2023/06/17 14:02:30;;;;;;;0.97;0.83;;;;;;;;;;5047492;28;20427;-77
2023/06/17 14:04:58;;;;;;;0.90;0.60;;;;;;;;;;5045837;28;20451;-76
2023/06/17 14:07:25;;;;;;;1.00;0.60;;;;;;;;;;5053662;28;20573;-77
2023/06/17 14:09:51;;;;;;;0.90;0.60;;;;;;;;;;5052387;28;20546;-78
2023/06/17 14:12:18;;;;;;;1.20;0.70;;;;;;;;;;5050353;28;20442;-77
2023/06/17 14:14:44;;;;;;;1.10;1.00;;;;;;;;;;5055299;28;20522;-78
2023/06/17 14:17:11;;;;;;;2.00;1.03;;;;;;;;;;5052199;28;20463;-79
2023/06/17 14:19:38;;;;;;;1.00;0.63;;;;;;;;;;5047479;28;20950;-76
2023/06/17 14:22:06;;;;;;;1.10;0.77;;;;;;;;;;5048625;28;20459;-77
2023/06/17 14:24:35;;;;;;;3.67;1.10;;;;;;;;;;5053232;28;20526;-79
2023/06/17 14:27:14;;;;;;;1.40;1.00;;;;;;;;;;5049953;28;20475;-78
2023/06/17 14:29:41;;;;;;;0.90;0.60;;;;;;;;;;5050045;28;20484;-76
2023/06/17 14:32:07;;;;;;;0.90;0.50;;;;;;;;;;5055232;28;20250;-76
2023/06/17 14:34:34;;;;;;;1.00;0.60;;;;;;;;;;5045837;28;20266;-74
2023/06/17 14:37:02;;;;;;;1.30;0.93;;;;;;;;;;5049563;28;20220;-76
2023/06/17 14:39:30;;;;;;;1.00;0.63;;;;;;;;;;5045507;28;20184;-76
2023/06/17 14:41:57;;;;;;;0.90;0.50;;;;;;;;;;5049217;28;20295;-74
2023/06/17 14:44:23;;;;;;;0.90;0.50;;;;;;;;;;5050570;28;20192;-75
2023/06/17 14:46:50;;;;;;;0.90;0.60;;;;;;;;;;5053885;28;20222;-75